createdAt,value
2023-10-02T00:02:37.590Z,17.06
2023-10-02T00:05:09.319Z,16.99
2023-10-02T00:07:38.115Z,16.87
2023-10-02T00:10:05.995Z,16.98
2023-10-02T00:12:35.601Z,16.97
2023-10-02T00:15:13.706Z,17.34
2023-10-02T00:17:45.805Z,17.30
2023-10-02T00:20:22.569Z,16.78
2023-10-02T00:22:51.506Z,16.89
2023-10-02T00:25:21.175Z,16.82
2023-10-02T00:27:52.768Z,17.07
2023-10-02T00:30:22.565Z,16.87
2023-10-02T00:32:50.997Z,16.80
2023-10-02T00:35:17.966Z,17.19
2023-10-02T00:37:45.945Z,17.10
2023-10-02T00:40:23.528Z,16.77
2023-10-02T00:42:56.572Z,16.64
2023-10-02T00:45:25.250Z,17.21
2023-10-02T00:47:54.789Z,17.14
2023-10-02T00:50:23.496Z,16.85
2023-10-02T00:53:00.649Z,17.17
2023-10-02T00:55:33.948Z,16.81
2023-10-02T00:58:04.171Z,17.18
2023-10-02T01:00:36.790Z,16.80
2023-10-02T01:03:10.074Z,16.77
2023-10-02T01:05:48.960Z,17.13
2023-10-02T01:08:37.058Z,16.82
2023-10-02T01:11:04.404Z,16.81
2023-10-02T01:13:33.995Z,16.73
2023-10-02T01:16:08.462Z,17.08
2023-10-02T01:18:39.223Z,16.72
2023-10-02T01:21:13.732Z,16.86
2023-10-02T01:24:06.438Z,17.24
2023-10-02T01:26:37.531Z,16.75
2023-10-02T01:29:07.070Z,16.78
2023-10-02T01:31:37.384Z,16.84
2023-10-02T01:34:05.789Z,16.99
2023-10-02T01:36:36.207Z,16.86
2023-10-02T01:39:16.927Z,16.75
2023-10-02T01:41:49.977Z,16.93
2023-10-02T01:44:21.537Z,17.01
2023-10-02T01:46:51.566Z,17.26
2023-10-02T01:49:28.926Z,16.75
2023-10-02T01:52:03.413Z,16.84
2023-10-02T01:54:30.671Z,16.75
2023-10-02T01:57:01.421Z,17.18
2023-10-02T01:59:29.616Z,16.57
2023-10-02T02:01:58.360Z,17.22
2023-10-02T02:04:30.567Z,16.85
2023-10-02T02:06:59.104Z,16.88
2023-10-02T02:09:34.653Z,16.85
2023-10-02T02:12:12.354Z,16.92
2023-10-02T02:14:53.294Z,17.17
2023-10-02T02:17:29.161Z,16.83
2023-10-02T02:20:00.876Z,17.18
2023-10-02T02:22:32.878Z,16.77
2023-10-02T02:25:00.626Z,16.81
2023-10-02T02:27:27.316Z,16.96
2023-10-02T02:29:58.380Z,16.80
2023-10-02T02:32:53.921Z,16.49
2023-10-02T02:35:22.699Z,16.66
2023-10-02T02:37:51.528Z,16.77
2023-10-02T02:40:26.323Z,16.99
2023-10-02T02:42:54.223Z,16.64
2023-10-02T02:45:32.559Z,16.75
2023-10-02T02:48:06.102Z,16.73
2023-10-02T02:50:41.768Z,16.73
2023-10-02T02:53:38.809Z,16.69
2023-10-02T02:56:18.871Z,16.65
2023-10-02T02:58:47.018Z,16.95
2023-10-02T03:01:23.261Z,16.52
2023-10-02T03:03:54.985Z,16.96
2023-10-02T03:06:25.127Z,16.56
2023-10-02T03:08:53.570Z,16.54
2023-10-02T03:11:23.549Z,16.53
2023-10-02T03:13:51.417Z,16.45
2023-10-02T03:16:20.186Z,16.66
2023-10-02T03:18:49.453Z,16.60
2023-10-02T03:21:23.429Z,16.66
2023-10-02T03:24:01.782Z,16.65
2023-10-02T03:26:32.003Z,16.58
2023-10-02T03:29:02.917Z,16.68
2023-10-02T03:31:53.952Z,16.65
2023-10-02T03:34:29.433Z,16.68
2023-10-02T03:37:14.483Z,16.67
2023-10-02T03:40:02.042Z,16.74
2023-10-02T03:42:34.310Z,16.67
2023-10-02T03:45:05.661Z,17.01
2023-10-02T03:47:35.489Z,16.64
2023-10-02T03:50:04.483Z,16.63
2023-10-02T03:52:33.877Z,16.63
2023-10-02T03:55:17.250Z,16.58
2023-10-02T03:57:56.788Z,16.29
2023-10-02T04:00:27.872Z,16.44
2023-10-02T04:02:59.006Z,16.31
2023-10-02T04:05:55.759Z,16.21
2023-10-02T04:08:32.297Z,16.13
2023-10-02T04:11:04.040Z,15.90
2023-10-02T04:13:34.865Z,16.09
2023-10-02T04:16:21.455Z,15.87
2023-10-02T04:18:48.254Z,15.61
2023-10-02T04:21:20.939Z,15.99
2023-10-02T04:23:47.542Z,15.72
2023-10-02T04:26:20.817Z,15.55
2023-10-02T04:28:55.969Z,15.58
2023-10-02T04:31:28.824Z,15.47
2023-10-02T04:34:15.922Z,15.62
2023-10-02T04:36:44.237Z,15.65
2023-10-02T04:39:31.067Z,15.99
2023-10-02T04:42:13.811Z,15.76
2023-10-02T04:45:00.182Z,15.86
2023-10-02T04:47:28.284Z,15.92
2023-10-02T04:50:06.495Z,16.24
2023-10-02T04:52:59.674Z,16.25
2023-10-02T04:55:43.189Z,16.29
2023-10-02T04:58:16.172Z,15.92
2023-10-02T05:01:03.013Z,16.24
2023-10-02T05:03:54.209Z,15.96
2023-10-02T05:07:00.978Z,16.02
2023-10-02T05:09:27.937Z,15.99
2023-10-02T05:11:58.092Z,16.41
2023-10-02T05:14:28.488Z,15.94
2023-10-02T05:17:18.118Z,16.49
2023-10-02T05:19:58.647Z,16.52
2023-10-02T05:22:27.003Z,16.05
2023-10-02T05:24:59.883Z,16.52
2023-10-02T05:27:31.834Z,16.03
2023-10-02T05:30:02.989Z,16.23
2023-10-02T05:32:33.378Z,16.14
2023-10-02T05:35:12.710Z,15.96
2023-10-02T05:37:47.326Z,16.35
2023-10-02T05:40:19.101Z,16.01
2023-10-02T05:43:01.996Z,16.41
2023-10-02T05:45:47.048Z,16.44
2023-10-02T05:48:26.899Z,16.19
2023-10-02T05:50:59.103Z,16.50
2023-10-02T05:53:27.954Z,16.33
2023-10-02T05:56:08.382Z,16.41
2023-10-02T05:58:40.634Z,16.44
2023-10-02T06:01:19.736Z,16.52
2023-10-02T06:04:06.638Z,16.46
2023-10-02T06:06:37.560Z,16.50
2023-10-02T06:09:14.477Z,16.65
2023-10-02T06:12:01.154Z,16.70
2023-10-02T06:14:27.997Z,16.66
2023-10-02T06:16:54.962Z,16.75
2023-10-02T06:19:21.920Z,16.88
2023-10-02T06:22:05.801Z,17.34
2023-10-02T06:24:32.872Z,17.23
2023-10-02T06:27:00.208Z,17.09
2023-10-02T06:29:33.188Z,17.27
2023-10-02T06:32:00.985Z,17.26
2023-10-02T06:34:38.191Z,17.29
2023-10-02T06:37:13.646Z,17.43
2023-10-02T06:40:05.507Z,17.78
2023-10-02T06:42:32.560Z,17.46
2023-10-02T06:45:02.547Z,17.50
2023-10-02T06:47:31.423Z,17.37
2023-10-02T06:50:22.868Z,17.94
2023-10-02T06:52:53.573Z,17.64
2023-10-02T06:55:20.541Z,17.67
2023-10-02T06:57:53.810Z,17.88
2023-10-02T07:00:37.377Z,17.94
2023-10-02T07:03:05.540Z,18.08
2023-10-02T07:05:35.124Z,18.41
2023-10-02T07:08:18.848Z,18.17
2023-10-02T07:10:47.593Z,18.16
2023-10-02T07:13:21.278Z,18.56
2023-10-02T07:16:00.800Z,18.56
2023-10-02T07:18:46.735Z,18.88
2023-10-02T07:21:15.089Z,18.98
2023-10-02T07:23:42.191Z,18.82
2023-10-02T07:26:20.677Z,18.83
2023-10-02T07:28:52.481Z,19.14
2023-10-02T07:31:24.072Z,18.82
2023-10-02T07:33:56.396Z,18.64
2023-10-02T07:36:27.760Z,18.89
2023-10-02T07:38:55.803Z,19.06
2023-10-02T07:41:27.274Z,18.71
2023-10-02T07:43:55.946Z,18.68
2023-10-02T07:46:23.476Z,18.86
2023-10-02T07:48:58.677Z,18.75
2023-10-02T07:51:31.893Z,19.22
2023-10-02T07:53:59.828Z,19.03
2023-10-02T07:56:28.472Z,19.13
2023-10-02T07:59:02.748Z,19.60
2023-10-02T08:01:30.520Z,19.47
2023-10-02T08:03:57.811Z,19.55
2023-10-02T08:06:34.829Z,19.63
2023-10-02T08:09:23.392Z,19.38
2023-10-02T08:11:53.596Z,19.67
2023-10-02T08:14:44.472Z,19.57
2023-10-02T08:17:29.214Z,19.04
2023-10-02T08:19:58.194Z,19.49
2023-10-02T08:22:37.273Z,19.33
2023-10-02T08:25:06.160Z,19.84
2023-10-02T08:27:33.369Z,19.90
2023-10-02T08:30:02.394Z,20.00
2023-10-02T08:32:32.167Z,20.19
2023-10-02T08:34:59.258Z,20.15
2023-10-02T08:37:26.925Z,19.84
2023-10-02T08:39:53.803Z,19.89
2023-10-02T08:42:25.190Z,19.92
2023-10-02T08:44:59.390Z,20.25
2023-10-02T08:47:26.490Z,20.41
2023-10-02T08:50:05.950Z,20.91
2023-10-02T08:52:39.944Z,20.92
2023-10-02T08:55:45.259Z,21.43
2023-10-02T08:58:19.830Z,21.76
2023-10-02T09:01:09.795Z,21.68
2023-10-02T09:03:47.128Z,21.57
2023-10-02T09:06:26.988Z,22.11
2023-10-02T09:09:13.266Z,22.24
2023-10-02T09:11:42.234Z,21.87
2023-10-02T09:14:40.875Z,21.39
2023-10-02T09:17:18.624Z,21.53
2023-10-02T09:19:54.374Z,21.47
2023-10-02T09:22:29.021Z,21.14
2023-10-02T09:25:28.402Z,21.10
2023-10-02T09:28:04.854Z,21.75
2023-10-02T09:30:34.981Z,21.52
2023-10-02T09:33:12.546Z,21.60
2023-10-02T09:36:31.553Z,21.77
2023-10-02T09:38:44.171Z,22.09
2023-10-02T09:41:21.496Z,22.10
2023-10-02T09:46:24.311Z,22.35
2023-10-02T09:49:11.030Z,22.38
2023-10-02T09:52:16.168Z,21.90
2023-10-02T09:55:15.588Z,22.16
2023-10-02T09:57:50.684Z,22.37
2023-10-02T10:00:37.683Z,22.49
2023-10-02T10:03:25.647Z,22.94
2023-10-02T10:06:07.308Z,23.36
2023-10-02T10:09:14.639Z,23.47
2023-10-02T10:11:44.880Z,23.52
2023-10-02T10:14:40.144Z,23.77
2023-10-02T10:17:50.804Z,24.04
2023-10-02T10:20:20.998Z,23.99
2023-10-02T10:22:52.575Z,24.25
2023-10-02T10:25:22.492Z,24.01
2023-10-02T10:28:07.653Z,24.15
2023-10-02T10:30:46.806Z,24.15
2023-10-02T10:33:13.475Z,23.72
2023-10-02T10:35:51.175Z,23.71
2023-10-02T10:38:28.130Z,23.89
2023-10-02T10:41:10.593Z,23.99
2023-10-02T10:43:47.020Z,23.67
2023-10-02T10:46:30.704Z,23.19
2023-10-02T10:49:08.621Z,23.18
2023-10-02T10:51:39.772Z,23.48
2023-10-02T10:54:42.933Z,23.68
2023-10-02T10:57:20.734Z,24.14
2023-10-02T10:59:48.214Z,24.40
2023-10-02T11:02:16.779Z,24.67
2023-10-02T11:04:51.121Z,24.89
2023-10-02T11:07:26.353Z,24.77
2023-10-02T11:10:18.623Z,24.56
2023-10-02T11:12:57.595Z,24.29
2023-10-02T11:15:44.320Z,24.08
2023-10-02T11:18:19.922Z,23.93
2023-10-02T11:21:00.470Z,24.19
2023-10-02T11:23:43.173Z,24.47
2023-10-02T11:26:17.155Z,24.32
2023-10-02T11:28:51.277Z,24.21
2023-10-02T11:31:46.910Z,23.81
2023-10-02T11:36:53.563Z,22.81
2023-10-02T11:39:21.045Z,22.95
2023-10-02T11:41:47.915Z,22.90
2023-10-02T11:44:15.638Z,23.03
2023-10-02T11:46:42.630Z,23.00
2023-10-02T11:49:09.753Z,23.37
2023-10-02T11:51:36.366Z,23.42
2023-10-02T11:54:06.817Z,23.43
2023-10-02T11:56:35.513Z,23.68
2023-10-02T11:59:03.856Z,23.76
2023-10-02T12:01:30.638Z,24.05
2023-10-02T12:03:58.326Z,24.39
2023-10-02T12:06:29.446Z,24.41
2023-10-02T12:08:57.957Z,24.38
2023-10-02T12:11:29.591Z,24.75
2023-10-02T12:13:57.607Z,24.85
2023-10-02T12:16:24.731Z,24.96
2023-10-02T12:18:52.293Z,24.83
2023-10-02T12:21:23.208Z,24.98
2023-10-02T12:23:50.101Z,25.02
2023-10-02T12:26:18.198Z,24.98
2023-10-02T12:28:45.832Z,25.11
2023-10-02T12:31:16.292Z,25.07
2023-10-02T12:33:44.545Z,25.20
2023-10-02T12:36:18.456Z,25.06
2023-10-02T12:38:46.106Z,24.76
2023-10-02T12:41:31.654Z,24.59
2023-10-02T12:43:59.438Z,24.78
2023-10-02T12:46:27.372Z,24.59
2023-10-02T12:48:56.376Z,24.52
2023-10-02T12:51:24.067Z,24.68
2023-10-02T12:53:51.667Z,24.64
2023-10-02T12:56:22.022Z,24.48
2023-10-02T12:58:53.270Z,24.35
2023-10-02T13:01:25.746Z,24.10
2023-10-02T13:03:53.102Z,24.32
2023-10-02T13:06:20.318Z,24.48
2023-10-02T13:08:46.962Z,24.79
2023-10-02T13:11:20.006Z,24.82
2023-10-02T13:13:50.381Z,24.78
2023-10-02T13:16:17.843Z,24.81
2023-10-02T13:18:47.519Z,24.55
2023-10-02T13:21:20.272Z,24.78
2023-10-02T13:23:48.140Z,24.98
2023-10-02T13:26:17.455Z,25.13
2023-10-02T13:28:53.416Z,25.21
2023-10-02T13:31:20.357Z,25.38
2023-10-02T13:33:48.368Z,25.43
2023-10-02T13:36:15.536Z,25.38
2023-10-02T13:38:42.348Z,25.15
2023-10-02T13:41:10.169Z,25.25
2023-10-02T13:43:44.951Z,24.94
2023-10-02T13:46:15.469Z,25.00
2023-10-02T13:48:43.008Z,24.73
2023-10-02T13:51:10.333Z,24.88
2023-10-02T13:53:38.620Z,24.81
2023-10-02T13:56:18.110Z,24.94
2023-10-02T13:58:49.657Z,24.96
2023-10-02T14:01:17.572Z,24.91
2023-10-02T14:03:46.947Z,24.96
2023-10-02T14:06:15.273Z,24.80
2023-10-02T14:08:42.256Z,24.65
2023-10-02T14:11:12.463Z,24.65
2023-10-02T14:13:39.129Z,24.44
2023-10-02T14:16:11.805Z,24.60
2023-10-02T14:18:40.102Z,24.66
2023-10-02T14:21:08.263Z,24.24
2023-10-02T14:23:35.858Z,24.44
2023-10-02T14:26:03.618Z,24.36
2023-10-02T14:28:30.522Z,24.24
2023-10-02T14:30:57.393Z,24.23
2023-10-02T14:33:25.184Z,24.02
2023-10-02T14:35:56.751Z,23.89
2023-10-02T14:38:24.969Z,23.65
2023-10-02T14:40:53.681Z,23.65
2023-10-02T14:43:21.838Z,23.75
2023-10-02T14:45:49.082Z,23.79
2023-10-02T14:48:40.940Z,23.79
2023-10-02T14:51:09.971Z,23.78
2023-10-02T14:53:39.492Z,23.76
2023-10-02T14:56:06.437Z,23.75
2023-10-02T14:58:33.604Z,23.66
2023-10-02T15:01:00.473Z,23.52
2023-10-02T15:03:27.077Z,23.54
2023-10-02T15:05:53.831Z,23.49
2023-10-02T15:08:20.634Z,23.38
2023-10-02T15:10:48.070Z,23.34
2023-10-02T15:13:15.398Z,23.26
2023-10-02T15:15:42.076Z,23.20
2023-10-02T15:18:15.174Z,23.10
2023-10-02T15:20:43.145Z,23.04
2023-10-02T15:23:14.353Z,23.00
2023-10-02T15:25:41.700Z,22.79
2023-10-02T15:28:08.408Z,22.72
2023-10-02T15:30:36.303Z,22.75
2023-10-02T15:33:03.083Z,22.67
2023-10-02T15:35:31.376Z,22.60
2023-10-02T15:38:02.626Z,22.55
2023-10-02T15:40:31.804Z,22.46
2023-10-02T15:42:58.566Z,22.32
2023-10-02T15:45:25.336Z,22.26
2023-10-02T15:47:52.973Z,22.10
2023-10-02T15:50:25.055Z,22.03
2023-10-02T15:52:53.062Z,21.94
2023-10-02T15:55:21.511Z,21.46
2023-10-02T15:57:50.169Z,21.41
2023-10-02T16:00:24.807Z,21.62
2023-10-02T16:02:55.350Z,21.71
2023-10-02T16:05:23.203Z,21.46
2023-10-02T16:07:50.648Z,21.58
2023-10-02T16:10:20.039Z,21.54
2023-10-02T16:12:48.006Z,21.39
2023-10-02T16:15:16.698Z,21.44
2023-10-02T16:17:47.491Z,21.45
2023-10-02T16:20:15.955Z,21.44
2023-10-02T16:22:43.773Z,21.42
2023-10-02T16:25:13.347Z,21.40
2023-10-02T16:27:44.391Z,21.37
2023-10-02T16:30:12.790Z,21.27
2023-10-02T16:32:41.427Z,21.30
2023-10-02T16:35:10.858Z,21.21
2023-10-02T16:37:41.717Z,21.20
2023-10-02T16:40:12.124Z,21.06
2023-10-02T16:42:42.175Z,21.04
2023-10-02T16:45:18.302Z,20.90
2023-10-02T16:47:46.247Z,20.76
2023-10-02T16:50:14.433Z,20.52
2023-10-02T16:52:46.775Z,20.43
2023-10-02T16:55:20.866Z,20.27
2023-10-02T16:57:52.081Z,20.19
2023-10-02T17:00:25.838Z,20.06
2023-10-02T17:02:59.198Z,19.86
2023-10-02T17:05:26.545Z,19.75
2023-10-02T17:07:54.988Z,19.81
2023-10-02T17:10:22.951Z,19.68
2023-10-02T17:12:51.848Z,19.37
2023-10-02T17:15:20.010Z,19.51
2023-10-02T17:17:51.571Z,19.34
2023-10-02T17:20:22.008Z,19.21
2023-10-02T17:22:50.792Z,19.21
2023-10-02T17:25:25.325Z,19.15
2023-10-02T17:27:54.384Z,18.90
2023-10-02T17:30:22.212Z,18.97
2023-10-02T17:32:49.348Z,18.87
2023-10-02T17:35:17.903Z,18.82
2023-10-02T17:37:44.486Z,18.69
2023-10-02T17:40:12.120Z,18.61
2023-10-02T17:42:42.174Z,18.56
2023-10-02T17:45:09.731Z,18.56
2023-10-02T17:47:37.988Z,18.43
2023-10-02T17:50:06.493Z,18.51
2023-10-02T17:52:33.445Z,18.47
2023-10-02T17:55:00.668Z,18.33
2023-10-02T17:57:27.227Z,18.18
2023-10-02T17:59:55.262Z,18.20
2023-10-02T18:02:22.242Z,18.05
2023-10-02T18:04:52.714Z,18.05
2023-10-02T18:07:19.449Z,17.97
2023-10-02T18:09:49.129Z,18.06
2023-10-02T18:12:16.216Z,17.90
2023-10-02T18:14:42.790Z,17.84
2023-10-02T18:17:10.944Z,17.81
2023-10-02T18:19:37.728Z,17.83
2023-10-02T18:22:04.370Z,17.53
2023-10-02T18:24:31.747Z,17.77
2023-10-02T18:27:01.054Z,17.95
2023-10-02T18:29:29.802Z,18.17
2023-10-02T18:31:56.841Z,18.17
2023-10-02T18:34:42.348Z,18.22
2023-10-02T18:37:11.885Z,17.97
2023-10-02T18:39:38.471Z,18.18
2023-10-02T18:42:05.932Z,18.10
2023-10-02T18:44:36.259Z,17.88
2023-10-02T18:47:03.501Z,18.08
2023-10-02T18:49:33.351Z,18.02
2023-10-02T18:52:02.561Z,17.99
2023-10-02T18:54:29.552Z,18.00
2023-10-02T18:56:56.305Z,17.94
2023-10-02T18:59:23.121Z,18.05
2023-10-02T19:01:49.768Z,17.91
2023-10-02T19:04:16.453Z,17.96
2023-10-02T19:06:43.095Z,17.73
2023-10-02T19:09:12.483Z,17.56
2023-10-02T19:11:39.284Z,17.72
2023-10-02T19:14:06.686Z,17.69
2023-10-02T19:16:33.630Z,17.52
2023-10-02T19:19:00.572Z,17.64
2023-10-02T19:21:28.942Z,17.53
2023-10-02T19:23:55.632Z,17.49
2023-10-02T19:26:23.310Z,17.47
2023-10-02T19:28:51.102Z,17.39
2023-10-02T19:31:17.846Z,17.36
2023-10-02T19:33:45.126Z,17.29
2023-10-02T19:36:11.785Z,17.05
2023-10-02T19:38:38.840Z,17.23
2023-10-02T19:41:13.280Z,17.08
2023-10-02T19:43:41.917Z,17.10
2023-10-02T19:46:10.335Z,17.09
2023-10-02T19:48:37.097Z,17.03
2023-10-02T19:51:10.696Z,17.03
2023-10-02T19:53:37.569Z,16.67
2023-10-02T19:56:05.293Z,16.85
2023-10-02T19:58:33.180Z,16.67
2023-10-02T20:01:00.835Z,16.86
2023-10-02T20:03:29.396Z,16.79
2023-10-02T20:05:56.488Z,16.83
2023-10-02T20:08:23.599Z,16.82
2023-10-02T20:10:50.125Z,16.71
2023-10-02T20:13:16.816Z,16.50
2023-10-02T20:15:43.479Z,16.65
2023-10-02T20:18:10.236Z,16.66
2023-10-02T20:20:38.286Z,16.92
2023-10-02T20:23:05.056Z,17.11
2023-10-02T20:25:31.650Z,17.07
2023-10-02T20:27:58.249Z,17.36
2023-10-02T20:30:26.476Z,17.34
2023-10-02T20:32:54.376Z,17.65
2023-10-02T20:35:21.665Z,17.65
2023-10-02T20:37:48.605Z,17.66
2023-10-02T20:40:16.435Z,17.59
2023-10-02T20:42:43.356Z,17.31
2023-10-02T20:45:10.472Z,17.35
2023-10-02T20:47:37.355Z,17.23
2023-10-02T20:50:04.460Z,17.18
2023-10-02T20:52:31.125Z,17.15
2023-10-02T20:54:57.783Z,17.04
2023-10-02T20:57:27.075Z,16.99
2023-10-02T20:59:54.974Z,16.94
2023-10-02T21:02:22.976Z,16.81
2023-10-02T21:04:49.627Z,16.80
2023-10-02T21:07:17.011Z,16.42
2023-10-02T21:09:43.680Z,16.61
2023-10-02T21:12:10.212Z,16.57
2023-10-02T21:14:38.281Z,16.60
2023-10-02T21:17:04.898Z,16.31
2023-10-02T21:19:32.341Z,16.48
2023-10-02T21:21:58.948Z,16.47
2023-10-02T21:24:25.526Z,16.27
2023-10-02T21:26:52.354Z,16.39
2023-10-02T21:29:19.182Z,16.45
2023-10-02T21:31:45.820Z,16.32
2023-10-02T21:34:12.410Z,16.36
2023-10-02T21:36:39.985Z,16.32
2023-10-02T21:39:06.746Z,16.30
2023-10-02T21:41:33.439Z,16.11
2023-10-02T21:44:01.368Z,16.21
2023-10-02T21:46:27.946Z,16.05
2023-10-02T21:48:54.456Z,16.10
2023-10-02T21:51:21.047Z,15.90
2023-10-02T21:53:48.048Z,15.70
2023-10-02T21:56:17.770Z,16.02
2023-10-02T21:58:45.102Z,15.89
2023-10-02T22:01:13.025Z,15.83
2023-10-02T22:03:44.738Z,15.93
2023-10-02T22:06:12.070Z,15.85
2023-10-02T22:08:40.146Z,15.91
2023-10-02T22:11:07.074Z,15.99
2023-10-02T22:13:33.750Z,15.77
2023-10-02T22:16:02.082Z,15.91
2023-10-02T22:18:28.836Z,16.02
2023-10-02T22:21:04.444Z,15.97
2023-10-02T22:23:35.049Z,15.99
2023-10-02T22:26:03.932Z,15.86
2023-10-02T22:28:30.499Z,15.74
2023-10-02T22:30:58.795Z,15.91
2023-10-02T22:33:25.408Z,15.92
2023-10-02T22:35:52.217Z,15.85
2023-10-02T22:38:18.901Z,15.73
2023-10-02T22:40:45.505Z,15.57
2023-10-02T22:43:12.206Z,15.61
2023-10-02T22:45:41.514Z,15.71
2023-10-02T22:48:10.149Z,15.70
2023-10-02T22:50:37.435Z,15.72
2023-10-02T22:53:04.239Z,15.72
2023-10-02T22:55:31.112Z,15.12
2023-10-02T22:57:59.671Z,15.31
2023-10-02T23:00:30.867Z,15.22
2023-10-02T23:02:58.697Z,15.49
2023-10-02T23:05:25.782Z,15.53
2023-10-02T23:07:52.554Z,15.63
2023-10-02T23:10:20.130Z,15.13
2023-10-02T23:12:51.667Z,15.25
2023-10-02T23:15:20.631Z,15.39
2023-10-02T23:17:48.589Z,15.29
2023-10-02T23:20:15.875Z,15.42
2023-10-02T23:22:47.584Z,15.21
2023-10-02T23:25:15.417Z,15.75
2023-10-02T23:27:42.038Z,15.20
2023-10-02T23:30:09.729Z,15.09
2023-10-02T23:32:39.557Z,15.23
2023-10-02T23:35:07.052Z,15.38
2023-10-02T23:37:34.448Z,15.63
2023-10-02T23:40:03.201Z,15.31
2023-10-02T23:42:29.788Z,15.03
2023-10-02T23:44:56.474Z,15.11
2023-10-02T23:47:23.225Z,15.13
2023-10-02T23:49:50.052Z,15.16
2023-10-02T23:52:16.766Z,15.67
2023-10-02T23:54:46.822Z,15.26
2023-10-02T23:57:14.908Z,15.64
2023-10-02T23:59:44.327Z,15.35
